Laurence M. Gould — WCX7445 — position and weather

sailwx.info

Track history (hours):
 
Tides Stations Pressure Air Temp Water Temp Dewpoint Dewpoint depression Visibility Wind Speed Wind Dir Waves Ship positions

Oceanographic research ship Laurence M. Gould (USA)

Detailed information on ship capabilities available from University of Delaware's Ocean Information Center.

More information available from US FCC via Universal Licensing System and Coast Guard Vessel Documentation Center.

Last reported at 2014-Jun-27 06:00 UTC. Time now 2014-Jul-13 20:55 UTC.
Position S 63°24' W 062°24'.
Warning: this ship's position is 16 days out of date.

Type: Other ship. MMSI: 368138000.

Wind from 060 at 22 knots

Barometer 983.9 mb
Air temperature -3.6 ° C
Water temperature 0.3 ° C

Date/timePositionNaut miles runAvg speedWind from/ knotsBaromVisibWave heightAir tempDewpointWater temp
2014-Jun-27 06:00S 63°24' W 062°24'3 2.7 060 / 22983.9 -3.6 0.3
2014-Jun-27 05:00S 63°24' W 062°30'7 6.6 070 / 13983.5 -2.3 0.2
2014-Jun-27 04:00S 63°18' W 062°36'3 2.7 210 / 4983.1 -1.8 0.2
2014-Jun-27 03:00S 63°18' W 062°42'3 2.7 240 / 11982.4 -1.5 0.1
2014-Jun-27 02:00S 63°18' W 062°36'0 0.0 220 / 12981.9 -2.0 0.1
2014-Jun-27 01:00S 63°18' W 062°36'7 6.6 240 / 17981.3 -2.0 0.1
2014-Jun-27 00:00S 63°24' W 062°30'3 2.7 250 / 12980.7 -1.8 0.2
2014-Jun-26 23:00S 63°24' W 062°24'1010.1 240 / 9979.8 -1.7 0.2
2014-Jun-26 22:00S 63°18' W 062°42'8 2.7 270 / 8979.0 -1.8 0.1
2014-Jun-26 19:00S 63°24' W 062°30'0 0.0 270 / 11976.3 -0.7 0.1
2014-Jun-26 18:00S 63°24' W 062°30'3 2.7 270 / 18975.2 -1.2 0.3
2014-Jun-26 17:00S 63°24' W 062°24'5 5.4 310 / 11974.5 -1.2 0.3
2014-Jun-26 16:00S 63°24' W 062°36'0 0.0 280 / 15973.4 -1.3 0.1
2014-Jun-26 15:00S 63°24' W 062°36'0 0.0 290 / 12972.5 -0.8 0.1
2014-Jun-26 13:00S 63°24' W 062°36'3 2.7 330 / 12970.9 -1.2 0.2
2014-Jun-26 12:00S 63°24' W 062°42'0 0.0 040 / 24969.8 -1.6 0.1
2014-Jun-26 11:00S 63°24' W 062°42'8 8.1 050 / 24968.9 -1.9 0.3
2014-Jun-26 10:00S 63°18' W 062°54'1212.0 020 / 17968.9 -0.6 0.4
2014-Jun-26 09:00S 63°06' W 062°54'1212.0 010 / 21968.5 -0.7 0.3
2014-Jun-26 08:00S 62°54' W 062°54'1212.0 010 / 18968.7 -0.7 0.3
2014-Jun-26 07:00S 62°42' W 062°54'1212.0 010 / 18968.7 -0.8 0.3
2014-Jun-26 06:00S 62°30' W 062°54'7 6.6 360 / 18968.8 -0.8 0.2
2014-Jun-26 05:00S 62°24' W 063°00'1212.0 360 / 17969.1 -0.6 0.3
2014-Jun-26 04:00S 62°12' W 063°00'1212.3 360 / 16969.5 -0.5 0.3
2014-Jun-26 03:00S 62°00' W 063°06'1212.0 340 / 14969.5 -0.4 0.3
2014-Jun-26 02:00S 61°48' W 063°06'1212.3 330 / 15970.0 -0.2 0.3
2014-Jun-26 01:00S 61°36' W 063°12'6 6.0 320 / 17970.1 -0.1 0.5
2014-Jun-26 00:00S 61°30' W 063°12'2412.1 320 / 16970.5 0.1 0.5
2014-Jun-25 22:00S 61°06' W 063°18'7 6.7 310 / 18970.7 0.7 0.8
2014-Jun-25 21:00S 61°00' W 063°24'1212.0 300 / 18970.8 1.1 1.8
2014-Jun-25 20:00S 60°48' W 063°24'1212.0 310 / 18970.9 1.2 2.2
2014-Jun-25 19:00S 60°36' W 063°24'18 9.1 310 / 19971.2 1.0 2.0
2014-Jun-25 17:00S 60°18' W 063°30'1212.4 340 / 29971.8 -0.2 1.1
2014-Jun-25 16:00S 60°06' W 063°36'1212.0 010 / 35972.7 -0.3 1.2
2014-Jun-25 15:00S 59°54' W 063°36'7 6.7 020 / 30974.9 -0.4 0.9
2014-Jun-25 14:00S 59°48' W 063°42'1212.0 010 / 24977.3 -0.2 0.9
2014-Jun-25 13:00S 59°36' W 063°42'2412.1 360 / 20979.2 0.2 0.9
2014-Jun-25 11:00S 59°12' W 063°48'18 9.1 330 / 13982.2 0.3 0.9
2014-Jun-25 09:00S 58°54' W 063°54'6 6.0 270 / 13983.6 1.1 1.9
2014-Jun-25 08:00S 58°48' W 063°54'1212.4 250 / 16983.8 1.2 2.0
2014-Jun-25 07:00S 58°36' W 064°00'6 6.0 270 / 11983.8 0.8 2.6
2014-Jun-25 06:00S 58°30' W 064°00'1212.0 240 / 11983.6 1.2 2.5
2014-Jun-25 05:00S 58°18' W 064°00'1212.4 270 / 11983.3 2.0 2.5
2014-Jun-25 04:00S 58°06' W 064°06'6 6.0 250 / 13983.3 2.5 3.2
2014-Jun-25 03:00S 58°00' W 064°06'1212.4 260 / 10982.8 2.5 3.2
2014-Jun-25 02:00S 57°48' W 064°12'1212.0 250 / 14982.1 2.7 3.3
2014-Jun-25 01:00S 57°36' W 064°12'6 6.0 260 / 8982.0 2.1 3.8
2014-Jun-25 00:00S 57°30' W 064°12'18 9.1 220 / 16981.4 2.3 4.6
2014-Jun-24 22:00S 57°12' W 064°18'1212.0 250 / 12980.8 3.5 5.1
2014-Jun-24 21:00S 57°00' W 064°18'   270 / 22980.3 2.5 5.1
Track history (hours):
 
Tides Stations Pressure Air Temp Water Temp Dewpoint Dewpoint depression Visibility Wind Speed Wind Dir Waves Ship positions

Oceanographic research ship Laurence M. Gould (USA)

Detailed information on ship capabilities available from University of Delaware's Ocean Information Center.

More information available from US FCC via Universal Licensing System and Coast Guard Vessel Documentation Center.

Last reported at 2014-Jun-27 06:00 UTC. Time now 2014-Jul-13 20:55 UTC.
Position S 63°24' W 062°24'.
Warning: this ship's position is 16 days out of date.

Type: Other ship. MMSI: 368138000.

Wind from 060 at 22 knots

Barometer 983.9 mb
Air temperature -3.6 ° C
Water temperature 0.3 ° C

Date/timePositionNaut miles runAvg speedWind from/ knotsBaromVisibWave heightAir tempDewpointWater temp
2014-Jun-27 06:00S 63°24' W 062°24'3 2.7 060 / 22983.9 -3.6 0.3
2014-Jun-27 05:00S 63°24' W 062°30'7 6.6 070 / 13983.5 -2.3 0.2
2014-Jun-27 04:00S 63°18' W 062°36'3 2.7 210 / 4983.1 -1.8 0.2
2014-Jun-27 03:00S 63°18' W 062°42'3 2.7 240 / 11982.4 -1.5 0.1
2014-Jun-27 02:00S 63°18' W 062°36'0 0.0 220 / 12981.9 -2.0 0.1
2014-Jun-27 01:00S 63°18' W 062°36'7 6.6 240 / 17981.3 -2.0 0.1
2014-Jun-27 00:00S 63°24' W 062°30'3 2.7 250 / 12980.7 -1.8 0.2
2014-Jun-26 23:00S 63°24' W 062°24'1010.1 240 / 9979.8 -1.7 0.2
2014-Jun-26 22:00S 63°18' W 062°42'8 2.7 270 / 8979.0 -1.8 0.1
2014-Jun-26 19:00S 63°24' W 062°30'0 0.0 270 / 11976.3 -0.7 0.1
2014-Jun-26 18:00S 63°24' W 062°30'3 2.7 270 / 18975.2 -1.2 0.3
2014-Jun-26 17:00S 63°24' W 062°24'5 5.4 310 / 11974.5 -1.2 0.3
2014-Jun-26 16:00S 63°24' W 062°36'0 0.0 280 / 15973.4 -1.3 0.1
2014-Jun-26 15:00S 63°24' W 062°36'0 0.0 290 / 12972.5 -0.8 0.1
2014-Jun-26 13:00S 63°24' W 062°36'3 2.7 330 / 12970.9 -1.2 0.2
2014-Jun-26 12:00S 63°24' W 062°42'0 0.0 040 / 24969.8 -1.6 0.1
2014-Jun-26 11:00S 63°24' W 062°42'8 8.1 050 / 24968.9 -1.9 0.3
2014-Jun-26 10:00S 63°18' W 062°54'1212.0 020 / 17968.9 -0.6 0.4
2014-Jun-26 09:00S 63°06' W 062°54'1212.0 010 / 21968.5 -0.7 0.3
2014-Jun-26 08:00S 62°54' W 062°54'1212.0 010 / 18968.7 -0.7 0.3
2014-Jun-26 07:00S 62°42' W 062°54'1212.0 010 / 18968.7 -0.8 0.3
2014-Jun-26 06:00S 62°30' W 062°54'7 6.6 360 / 18968.8 -0.8 0.2
2014-Jun-26 05:00S 62°24' W 063°00'1212.0 360 / 17969.1 -0.6 0.3
2014-Jun-26 04:00S 62°12' W 063°00'1212.3 360 / 16969.5 -0.5 0.3
2014-Jun-26 03:00S 62°00' W 063°06'1212.0 340 / 14969.5 -0.4 0.3
2014-Jun-26 02:00S 61°48' W 063°06'1212.3 330 / 15970.0 -0.2 0.3
2014-Jun-26 01:00S 61°36' W 063°12'6 6.0 320 / 17970.1 -0.1 0.5
2014-Jun-26 00:00S 61°30' W 063°12'2412.1 320 / 16970.5 0.1 0.5
2014-Jun-25 22:00S 61°06' W 063°18'7 6.7 310 / 18970.7 0.7 0.8
2014-Jun-25 21:00S 61°00' W 063°24'1212.0 300 / 18970.8 1.1 1.8
2014-Jun-25 20:00S 60°48' W 063°24'1212.0 310 / 18970.9 1.2 2.2
2014-Jun-25 19:00S 60°36' W 063°24'18 9.1 310 / 19971.2 1.0 2.0
2014-Jun-25 17:00S 60°18' W 063°30'1212.4 340 / 29971.8 -0.2 1.1
2014-Jun-25 16:00S 60°06' W 063°36'1212.0 010 / 35972.7 -0.3 1.2
2014-Jun-25 15:00S 59°54' W 063°36'7 6.7 020 / 30974.9 -0.4 0.9
2014-Jun-25 14:00S 59°48' W 063°42'1212.0 010 / 24977.3 -0.2 0.9
2014-Jun-25 13:00S 59°36' W 063°42'2412.1 360 / 20979.2 0.2 0.9
2014-Jun-25 11:00S 59°12' W 063°48'18 9.1 330 / 13982.2 0.3 0.9
2014-Jun-25 09:00S 58°54' W 063°54'6 6.0 270 / 13983.6 1.1 1.9
2014-Jun-25 08:00S 58°48' W 063°54'1212.4 250 / 16983.8 1.2 2.0
2014-Jun-25 07:00S 58°36' W 064°00'6 6.0 270 / 11983.8 0.8 2.6
2014-Jun-25 06:00S 58°30' W 064°00'1212.0 240 / 11983.6 1.2 2.5
2014-Jun-25 05:00S 58°18' W 064°00'1212.4 270 / 11983.3 2.0 2.5
2014-Jun-25 04:00S 58°06' W 064°06'6 6.0 250 / 13983.3 2.5 3.2
2014-Jun-25 03:00S 58°00' W 064°06'1212.4 260 / 10982.8 2.5 3.2
2014-Jun-25 02:00S 57°48' W 064°12'1212.0 250 / 14982.1 2.7 3.3
2014-Jun-25 01:00S 57°36' W 064°12'6 6.0 260 / 8982.0 2.1 3.8
2014-Jun-25 00:00S 57°30' W 064°12'18 9.1 220 / 16981.4 2.3 4.6
2014-Jun-24 22:00S 57°12' W 064°18'1212.0 250 / 12980.8 3.5 5.1
2014-Jun-24 21:00S 57°00' W 064°18'   270 / 22980.3 2.5 5.1

Dump ship's entire track history